createdAt,value
2019-02-15T00:01:52.010Z,40.91
2019-02-15T00:04:21.622Z,40.90
2019-02-15T00:06:51.341Z,40.93
2019-02-15T00:09:20.958Z,41.06
2019-02-15T00:11:50.650Z,41.12
2019-02-15T00:14:20.350Z,41.13
2019-02-15T00:16:49.992Z,41.33
2019-02-15T00:19:38.309Z,41.29
2019-02-15T00:22:08.050Z,41.38
2019-02-15T00:24:37.731Z,41.30
2019-02-15T00:27:07.473Z,41.39
2019-02-15T00:29:37.267Z,41.44
2019-02-15T00:32:06.887Z,41.54
2019-02-15T00:34:36.582Z,41.58
2019-02-15T00:37:06.316Z,41.57
2019-02-15T00:39:35.998Z,41.72
2019-02-15T00:42:05.640Z,41.83
2019-02-15T00:44:35.231Z,41.74
2019-02-15T00:47:23.791Z,41.88
2019-02-15T00:50:04.681Z,41.98
2019-02-15T00:52:53.140Z,41.96
2019-02-15T00:55:47.818Z,41.96
2019-02-15T00:58:42.170Z,41.94
2019-02-15T01:01:30.757Z,41.95
2019-02-15T01:04:22.659Z,41.97
2019-02-15T01:07:01.940Z,42.01
2019-02-15T01:09:53.014Z,42.07
2019-02-15T01:12:34.218Z,42.21
2019-02-15T01:15:04.108Z,42.24
2019-02-15T01:17:33.843Z,42.18
2019-02-15T01:20:03.530Z,42.03
2019-02-15T01:22:33.160Z,42.15
2019-02-15T01:25:02.844Z,42.23
2019-02-15T01:27:43.108Z,42.33
2019-02-15T01:30:31.758Z,42.40
2019-02-15T01:33:26.165Z,42.36
2019-02-15T01:36:14.570Z,42.45
2019-02-15T01:39:01.759Z,42.43
2019-02-15T01:41:48.162Z,42.49
2019-02-15T01:44:24.156Z,42.51
2019-02-15T01:47:06.907Z,42.44
2019-02-15T01:49:36.455Z,42.37
2019-02-15T01:52:06.116Z,42.31
2019-02-15T01:54:35.828Z,42.27
2019-02-15T01:57:05.532Z,42.39
2019-02-15T01:59:35.338Z,42.37
2019-02-15T02:02:05.064Z,42.45
2019-02-15T02:04:34.772Z,42.48
2019-02-15T02:07:04.401Z,42.37
2019-02-15T02:09:34.087Z,42.34
2019-02-15T02:12:04.200Z,42.34
2019-02-15T02:14:33.928Z,42.31
2019-02-15T02:17:03.668Z,42.29
2019-02-15T02:19:33.241Z,42.33
2019-02-15T02:22:02.921Z,42.41
2019-02-15T02:24:32.762Z,42.33
2019-02-15T02:27:02.516Z,42.27
2019-02-15T02:29:32.181Z,42.47
2019-02-15T02:32:01.827Z,42.45
2019-02-15T02:34:31.499Z,42.28
2019-02-15T02:37:01.262Z,42.26
2019-02-15T02:39:30.922Z,42.19
2019-02-15T02:42:00.610Z,42.28
2019-02-15T02:44:30.546Z,42.13
2019-02-15T02:47:00.412Z,42.05
2019-02-15T02:49:30.069Z,42.13
2019-02-15T02:51:59.824Z,42.17
2019-02-15T02:54:29.430Z,42.09
2019-02-15T02:56:59.133Z,42.10
2019-02-15T02:59:28.832Z,42.07
2019-02-15T03:01:58.529Z,42.04
2019-02-15T03:04:28.269Z,42.06
2019-02-15T03:06:58.047Z,42.08
2019-02-15T03:09:27.740Z,41.97
2019-02-15T03:11:57.367Z,41.91
2019-02-15T03:14:27.085Z,41.94
2019-02-15T03:16:56.827Z,41.87
2019-02-15T03:19:26.512Z,41.93
2019-02-15T03:21:56.132Z,41.91
2019-02-15T03:24:25.839Z,41.89
2019-02-15T03:26:55.564Z,41.91
2019-02-15T03:29:25.298Z,41.91
2019-02-15T03:31:54.885Z,41.80
2019-02-15T03:34:24.627Z,41.83
2019-02-15T03:37:10.388Z,41.78
2019-02-15T03:39:51.754Z,41.69
2019-02-15T03:42:21.626Z,41.71
2019-02-15T03:44:51.411Z,41.74
2019-02-15T03:47:24.449Z,41.90
2019-02-15T03:49:54.159Z,41.90
2019-02-15T03:52:23.964Z,41.89
2019-02-15T03:54:53.682Z,41.86
2019-02-15T03:57:23.309Z,41.89
2019-02-15T03:59:53.016Z,41.80
2019-02-15T04:02:22.764Z,41.85
2019-02-15T04:04:52.490Z,41.82
2019-02-15T04:07:22.243Z,41.64
2019-02-15T04:09:51.885Z,41.64
2019-02-15T04:12:21.570Z,41.63
2019-02-15T04:14:51.203Z,41.66
2019-02-15T04:17:20.897Z,41.69
2019-02-15T04:19:50.590Z,41.64
2019-02-15T04:22:20.378Z,41.65
2019-02-15T04:24:50.113Z,41.71
2019-02-15T04:27:19.839Z,41.68
2019-02-15T04:29:49.574Z,41.68
2019-02-15T04:32:19.171Z,41.68
2019-02-15T04:34:48.758Z,41.61
2019-02-15T04:37:18.453Z,41.59
2019-02-15T04:39:48.177Z,41.75
2019-02-15T04:42:17.960Z,41.68
2019-02-15T04:44:48.551Z,41.64
2019-02-15T04:47:18.334Z,41.64
2019-02-15T04:49:47.967Z,41.71
2019-02-15T04:52:17.698Z,41.78
2019-02-15T04:54:47.514Z,42.11
2019-02-15T04:57:17.758Z,41.76
2019-02-15T04:59:47.537Z,41.77
2019-02-15T05:02:17.159Z,41.75
2019-02-15T05:04:46.830Z,41.67
2019-02-15T05:07:16.430Z,41.70
2019-02-15T05:09:46.415Z,41.69
2019-02-15T05:12:17.365Z,41.96
2019-02-15T05:14:53.185Z,41.64
2019-02-15T05:17:18.566Z,41.62
2019-02-15T05:19:48.168Z,41.33
2019-02-15T05:22:17.938Z,41.46
2019-02-15T05:24:47.518Z,41.27
2019-02-15T05:27:17.203Z,41.17
2019-02-15T05:29:46.940Z,40.96
2019-02-15T05:32:18.313Z,40.85
2019-02-15T05:34:48.089Z,40.62
2019-02-15T05:37:17.795Z,40.39
2019-02-15T05:39:47.598Z,40.29
2019-02-15T05:42:17.221Z,40.00
2019-02-15T05:44:46.912Z,39.95
2019-02-15T05:47:16.655Z,39.74
2019-02-15T05:49:46.329Z,39.65
2019-02-15T05:52:15.978Z,39.74
2019-02-15T05:54:45.754Z,39.66
2019-02-15T05:57:15.389Z,40.00
2019-02-15T05:59:45.133Z,40.37
2019-02-15T06:02:14.809Z,40.71
2019-02-15T06:04:44.621Z,39.72
2019-02-15T06:07:14.326Z,39.83
2019-02-15T06:09:44.012Z,40.26
2019-02-15T06:12:13.730Z,40.05
2019-02-15T06:14:43.480Z,40.24
2019-02-15T06:17:13.156Z,40.50
2019-02-15T06:19:42.774Z,40.48
2019-02-15T06:22:12.575Z,40.73
2019-02-15T06:24:42.190Z,40.74
2019-02-15T06:27:11.990Z,40.87
2019-02-15T06:29:41.638Z,41.01
2019-02-15T06:32:11.323Z,41.36
2019-02-15T06:34:40.945Z,43.73
2019-02-15T06:37:10.650Z,41.81
2019-02-15T06:39:40.257Z,40.74
2019-02-15T06:42:09.760Z,40.37
2019-02-15T06:44:39.455Z,40.22
2019-02-15T06:47:09.064Z,40.08
2019-02-15T06:49:39.101Z,40.10
2019-02-15T06:52:08.774Z,40.70
2019-02-15T06:54:38.605Z,41.08
2019-02-15T06:57:08.308Z,41.11
2019-02-15T06:59:51.746Z,40.99
2019-02-15T07:02:49.280Z,41.18
2019-02-15T07:05:26.781Z,41.24
2019-02-15T07:07:56.622Z,41.19
2019-02-15T07:10:26.260Z,41.17
2019-02-15T07:12:55.948Z,41.18
2019-02-15T07:15:33.407Z,41.17
2019-02-15T07:17:56.932Z,41.12
2019-02-15T07:20:26.646Z,41.05
2019-02-15T07:22:56.316Z,41.33
2019-02-15T07:25:25.961Z,41.34
2019-02-15T07:27:55.643Z,41.42
2019-02-15T07:30:25.223Z,41.47
2019-02-15T07:32:54.646Z,41.42
2019-02-15T07:35:24.566Z,41.46
2019-02-15T07:37:54.245Z,41.25
2019-02-15T07:40:24.139Z,40.99
2019-02-15T07:42:53.801Z,41.04
2019-02-15T07:45:23.596Z,40.89
2019-02-15T07:47:53.254Z,40.82
2019-02-15T07:50:22.949Z,40.91
2019-02-15T07:52:52.777Z,40.76
2019-02-15T07:55:22.382Z,40.70
2019-02-15T07:57:52.189Z,40.56
2019-02-15T08:00:21.792Z,40.62
2019-02-15T08:02:51.625Z,40.49
2019-02-15T08:05:23.318Z,40.29
2019-02-15T08:07:52.543Z,40.82
2019-02-15T08:10:22.201Z,40.75
2019-02-15T08:12:51.861Z,41.07
2019-02-15T08:15:21.641Z,40.84
2019-02-15T08:17:51.403Z,40.80
2019-02-15T08:20:21.143Z,40.63
2019-02-15T08:22:50.819Z,40.77
2019-02-15T08:25:21.450Z,41.31
2019-02-15T08:27:51.179Z,41.70
2019-02-15T08:30:22.159Z,42.27
2019-02-15T08:32:51.913Z,37.41
2019-02-15T08:35:21.557Z,37.42
2019-02-15T08:37:51.344Z,40.44
2019-02-15T08:40:21.076Z,40.12
2019-02-15T08:42:50.761Z,40.55
2019-02-15T08:45:20.418Z,40.65
2019-02-15T08:47:50.077Z,40.46
2019-02-15T08:50:19.814Z,40.37
2019-02-15T08:52:49.494Z,40.29
2019-02-15T08:55:19.237Z,40.30
2019-02-15T08:57:48.839Z,40.17
2019-02-15T09:00:18.629Z,40.17
2019-02-15T09:02:48.509Z,40.22
2019-02-15T09:05:18.244Z,40.15
2019-02-15T09:07:47.913Z,40.08
2019-02-15T09:10:17.580Z,40.11
2019-02-15T09:12:47.302Z,40.11
2019-02-15T09:15:19.207Z,40.04
2019-02-15T09:17:48.954Z,39.98
2019-02-15T09:20:18.693Z,40.11
2019-02-15T09:22:48.383Z,40.00
2019-02-15T09:25:18.149Z,39.98
2019-02-15T09:28:15.671Z,40.00
2019-02-15T09:30:49.036Z,39.86
2019-02-15T09:33:18.857Z,39.97
2019-02-15T09:35:48.537Z,39.84
2019-02-15T09:38:18.292Z,39.69
2019-02-15T09:40:48.066Z,39.70
2019-02-15T09:43:17.919Z,39.62
2019-02-15T09:45:47.543Z,39.49
2019-02-15T09:48:17.335Z,39.36
2019-02-15T09:50:46.954Z,39.28
2019-02-15T09:53:16.760Z,39.35
2019-02-15T09:55:46.442Z,39.10
2019-02-15T09:58:16.604Z,39.13
2019-02-15T10:00:46.407Z,39.20
2019-02-15T10:03:16.201Z,39.27
2019-02-15T10:05:45.947Z,39.36
2019-02-15T10:08:15.630Z,39.35
2019-02-15T10:10:45.457Z,39.19
2019-02-15T10:13:15.159Z,39.11
2019-02-15T10:15:44.976Z,39.09
2019-02-15T10:18:14.735Z,39.12
2019-02-15T10:20:44.324Z,38.90
2019-02-15T10:23:14.001Z,39.00
2019-02-15T10:25:43.663Z,39.06
2019-02-15T10:28:13.311Z,38.95
2019-02-15T10:30:43.147Z,38.85
2019-02-15T10:33:12.953Z,38.76
2019-02-15T10:35:42.675Z,38.75
2019-02-15T10:38:12.402Z,38.82
2019-02-15T10:40:42.136Z,38.86
2019-02-15T10:43:11.709Z,38.70
2019-02-15T10:45:41.404Z,38.64
2019-02-15T10:48:11.138Z,38.51
2019-02-15T10:50:40.769Z,38.52
2019-02-15T10:53:11.077Z,38.44
2019-02-15T10:55:40.777Z,38.47
2019-02-15T10:58:10.466Z,38.47
2019-02-15T11:00:40.179Z,38.37
2019-02-15T11:03:09.849Z,38.38
2019-02-15T11:05:39.522Z,38.32
2019-02-15T11:08:09.131Z,38.19
2019-02-15T11:10:38.934Z,38.17
2019-02-15T11:13:08.555Z,38.20
2019-02-15T11:15:38.253Z,38.04
2019-02-15T11:18:08.188Z,38.14
2019-02-15T11:20:37.872Z,38.08
2019-02-15T11:23:07.505Z,38.02
2019-02-15T11:25:37.193Z,38.11
2019-02-15T11:28:06.935Z,38.22
2019-02-15T11:30:36.739Z,38.18
2019-02-15T11:33:06.475Z,38.08
2019-02-15T11:35:36.375Z,37.96
2019-02-15T11:38:05.972Z,37.91
2019-02-15T11:40:35.863Z,37.71
2019-02-15T11:43:05.680Z,37.73
2019-02-15T11:45:35.380Z,37.68
2019-02-15T11:48:05.120Z,37.68
2019-02-15T11:50:34.883Z,37.68
2019-02-15T11:53:04.640Z,37.58
2019-02-15T11:55:34.505Z,37.57
2019-02-15T11:58:04.378Z,37.60
2019-02-15T12:00:34.785Z,37.50
2019-02-15T12:03:04.524Z,37.61
2019-02-15T12:05:34.338Z,37.57
2019-02-15T12:08:04.083Z,37.52
2019-02-15T12:10:33.975Z,37.48
2019-02-15T12:13:03.601Z,37.29
2019-02-15T12:15:33.598Z,37.21
2019-02-15T12:18:03.314Z,37.24
2019-02-15T12:20:32.973Z,37.26
2019-02-15T12:23:02.646Z,37.29
2019-02-15T12:25:32.304Z,37.21
2019-02-15T12:28:01.937Z,36.99
2019-02-15T12:30:31.617Z,37.09
2019-02-15T12:33:01.244Z,37.03
2019-02-15T12:35:30.948Z,37.02
2019-02-15T12:38:00.731Z,36.95
2019-02-15T12:40:30.454Z,37.17
2019-02-15T12:43:00.166Z,37.17
2019-02-15T12:45:29.883Z,37.04
2019-02-15T12:47:59.589Z,37.00
2019-02-15T12:50:29.218Z,36.95
2019-02-15T12:52:58.906Z,36.89
2019-02-15T12:55:28.571Z,36.92
2019-02-15T12:57:58.308Z,36.93
2019-02-15T13:00:27.958Z,36.93
2019-02-15T13:02:57.651Z,36.95
2019-02-15T13:05:27.281Z,37.01
2019-02-15T13:07:56.982Z,36.95
2019-02-15T13:10:28.223Z,36.90
2019-02-15T13:12:57.884Z,36.85
2019-02-15T13:15:27.570Z,36.80
2019-02-15T13:17:57.259Z,36.73
2019-02-15T13:20:26.964Z,36.66
2019-02-15T13:22:56.579Z,36.66
2019-02-15T13:25:26.369Z,36.65
2019-02-15T13:27:55.999Z,36.62
2019-02-15T13:30:25.764Z,36.58
2019-02-15T13:32:55.482Z,36.56
2019-02-15T13:35:25.216Z,36.60
2019-02-15T13:37:54.964Z,36.58
2019-02-15T13:40:24.684Z,36.61
2019-02-15T13:42:54.482Z,36.62
2019-02-15T13:45:24.168Z,36.63
2019-02-15T13:47:53.931Z,36.67
2019-02-15T13:50:23.613Z,36.76
2019-02-15T13:52:53.443Z,36.73
2019-02-15T13:55:23.042Z,36.81
2019-02-15T13:57:52.714Z,36.79
2019-02-15T14:00:22.392Z,36.78
2019-02-15T14:02:52.259Z,36.63
2019-02-15T14:05:21.865Z,36.60
2019-02-15T14:07:51.569Z,36.63
2019-02-15T14:10:21.200Z,36.57
2019-02-15T14:12:50.929Z,36.53
2019-02-15T14:15:20.603Z,36.49
2019-02-15T14:17:50.301Z,36.45
2019-02-15T14:20:20.024Z,36.41
2019-02-15T14:22:49.755Z,36.41
2019-02-15T14:25:19.447Z,36.37
2019-02-15T14:27:49.162Z,36.41
2019-02-15T14:30:18.875Z,36.35
2019-02-15T14:32:48.495Z,36.31
2019-02-15T14:35:18.279Z,36.44
2019-02-15T14:37:48.016Z,36.33
2019-02-15T14:40:17.705Z,36.33
2019-02-15T14:42:49.296Z,36.30
2019-02-15T14:45:18.974Z,36.31
2019-02-15T14:47:55.094Z,36.39
2019-02-15T14:50:20.132Z,36.30
2019-02-15T14:52:49.857Z,36.36
2019-02-15T14:55:19.766Z,36.34
2019-02-15T14:57:49.391Z,36.26
2019-02-15T15:00:19.112Z,36.31
2019-02-15T15:02:48.810Z,36.26
2019-02-15T15:05:18.459Z,36.24
2019-02-15T15:07:48.309Z,36.18
2019-02-15T15:10:17.940Z,36.22
2019-02-15T15:12:47.662Z,36.13
2019-02-15T15:15:17.473Z,36.13
2019-02-15T15:17:47.264Z,36.13
2019-02-15T15:20:16.878Z,36.04
2019-02-15T15:22:46.608Z,36.05
2019-02-15T15:25:16.311Z,36.00
2019-02-15T15:27:46.100Z,35.99
2019-02-15T15:30:15.792Z,35.91
2019-02-15T15:32:45.530Z,36.07
2019-02-15T15:35:15.267Z,35.98
2019-02-15T15:37:44.952Z,35.94
2019-02-15T15:40:14.804Z,35.93
2019-02-15T15:42:44.566Z,35.93
2019-02-15T15:45:14.202Z,35.92
2019-02-15T15:47:43.887Z,35.90
2019-02-15T15:50:13.606Z,35.92
2019-02-15T15:52:43.325Z,35.94
2019-02-15T15:55:13.162Z,35.89
2019-02-15T15:57:42.840Z,35.86
2019-02-15T16:00:12.929Z,35.87
2019-02-15T16:02:42.666Z,35.81
2019-02-15T16:05:12.311Z,35.78
2019-02-15T16:07:43.660Z,35.81
2019-02-15T16:10:13.472Z,35.68
2019-02-15T16:12:43.315Z,35.73
2019-02-15T16:15:13.005Z,35.70
2019-02-15T16:17:42.692Z,35.65
2019-02-15T16:20:12.481Z,35.69
2019-02-15T16:22:42.147Z,35.69
2019-02-15T16:25:11.988Z,35.26
2019-02-15T16:27:43.513Z,35.51
2019-02-15T16:30:13.294Z,35.66
2019-02-15T16:32:43.092Z,35.35
2019-02-15T16:35:12.844Z,35.54
2019-02-15T16:37:42.516Z,35.47
2019-02-15T16:40:12.963Z,35.43
2019-02-15T16:42:42.658Z,35.61
2019-02-15T16:45:13.686Z,35.83
2019-02-15T16:47:43.513Z,36.02
2019-02-15T16:50:13.135Z,36.07
2019-02-15T16:52:42.753Z,36.07
2019-02-15T16:55:13.445Z,36.14
2019-02-15T16:57:43.371Z,36.25
2019-02-15T17:00:13.179Z,36.54
2019-02-15T17:02:42.800Z,36.86
2019-02-15T17:05:13.149Z,37.17
2019-02-15T17:07:42.830Z,37.28
2019-02-15T17:10:12.561Z,37.47
2019-02-15T17:12:42.308Z,37.85
2019-02-15T17:15:12.322Z,37.77
2019-02-15T17:17:41.982Z,37.60
2019-02-15T17:20:11.706Z,38.38
2019-02-15T17:22:41.396Z,38.72
2019-02-15T17:25:11.115Z,38.66
2019-02-15T17:27:40.745Z,38.78
2019-02-15T17:30:10.654Z,39.00
2019-02-15T17:32:40.317Z,38.98
2019-02-15T17:35:10.292Z,39.06
2019-02-15T17:37:39.901Z,39.36
2019-02-15T17:40:10.754Z,39.22
2019-02-15T17:42:40.527Z,39.37
2019-02-15T17:45:10.685Z,39.44
2019-02-15T17:47:40.295Z,39.31
2019-02-15T17:50:09.942Z,39.59
2019-02-15T17:52:39.680Z,39.89
2019-02-15T17:55:09.263Z,39.85
2019-02-15T17:57:38.895Z,40.13
2019-02-15T18:00:09.471Z,40.18
2019-02-15T18:02:39.272Z,40.51
2019-02-15T18:05:16.584Z,40.31
2019-02-15T18:07:47.401Z,40.23
2019-02-15T18:10:17.160Z,40.23
2019-02-15T18:12:46.987Z,40.29
2019-02-15T18:15:16.635Z,40.12
2019-02-15T18:17:46.270Z,40.17
2019-02-15T18:20:15.859Z,39.85
2019-02-15T18:22:45.572Z,39.67
2019-02-15T18:25:15.380Z,39.51
2019-02-15T18:27:44.975Z,39.46
2019-02-15T18:30:14.969Z,39.40
2019-02-15T18:32:44.639Z,39.45
2019-02-15T18:35:14.528Z,39.24
2019-02-15T18:37:44.230Z,39.18
2019-02-15T18:40:13.924Z,39.27
2019-02-15T18:42:43.550Z,39.16
2019-02-15T18:45:13.772Z,39.05
2019-02-15T18:47:43.375Z,39.07
2019-02-15T18:50:13.169Z,38.97
2019-02-15T18:52:42.801Z,39.05
2019-02-15T18:55:12.557Z,38.91
2019-02-15T18:57:42.323Z,38.88
2019-02-15T19:00:13.985Z,38.93
2019-02-15T19:02:43.825Z,38.96
2019-02-15T19:05:14.288Z,38.87
2019-02-15T19:07:44.122Z,38.79
2019-02-15T19:10:15.998Z,38.78
2019-02-15T19:12:45.686Z,38.71
2019-02-15T19:15:15.877Z,38.73
2019-02-15T19:17:45.631Z,38.68
2019-02-15T19:20:15.235Z,38.69
2019-02-15T19:22:44.878Z,38.69
2019-02-15T19:25:14.818Z,38.63
2019-02-15T19:27:44.366Z,38.59
2019-02-15T19:30:19.145Z,38.51
2019-02-15T19:32:48.812Z,38.52
2019-02-15T19:35:18.454Z,38.49
2019-02-15T19:37:48.227Z,38.52
2019-02-15T19:40:17.924Z,38.48
2019-02-15T19:42:49.081Z,38.52
2019-02-15T19:45:18.826Z,38.48
2019-02-15T19:47:48.434Z,38.44
2019-02-15T19:50:18.306Z,38.50
2019-02-15T19:52:49.097Z,38.39
2019-02-15T19:55:18.759Z,38.53
2019-02-15T19:57:48.471Z,38.67
2019-02-15T20:00:18.982Z,38.74
2019-02-15T20:02:48.833Z,38.83
2019-02-15T20:05:18.518Z,38.90
2019-02-15T20:07:48.162Z,38.80
2019-02-15T20:10:19.306Z,38.56
2019-02-15T20:12:48.944Z,38.50
2019-02-15T20:15:18.761Z,38.37
2019-02-15T20:17:48.562Z,38.44
2019-02-15T20:20:18.217Z,38.54
2019-02-15T20:22:47.904Z,38.50
2019-02-15T20:25:17.741Z,38.40
2019-02-15T20:27:47.465Z,38.46
2019-02-15T20:30:18.460Z,38.70
2019-02-15T20:32:48.208Z,38.54
2019-02-15T20:35:17.841Z,38.57
2019-02-15T20:37:47.548Z,38.64
2019-02-15T20:40:17.163Z,38.56
2019-02-15T20:42:46.986Z,38.52
2019-02-15T20:45:18.446Z,38.48
2019-02-15T20:47:48.159Z,38.45
2019-02-15T20:50:18.201Z,38.47
2019-02-15T20:52:47.951Z,38.46
2019-02-15T20:55:17.565Z,38.42
2019-02-15T20:57:47.478Z,38.51
2019-02-15T21:00:19.270Z,38.40
2019-02-15T21:02:49.064Z,38.44
2019-02-15T21:05:18.850Z,38.43
2019-02-15T21:07:48.523Z,38.39
2019-02-15T21:10:18.174Z,38.37
2019-02-15T21:12:47.965Z,38.33
2019-02-15T21:15:17.570Z,38.58
2019-02-15T21:17:47.203Z,38.39
2019-02-15T21:20:16.942Z,38.31
2019-02-15T21:22:46.626Z,38.39
2019-02-15T21:25:16.372Z,38.37
2019-02-15T21:27:46.066Z,38.36
2019-02-15T21:30:16.005Z,38.38
2019-02-15T21:32:45.916Z,38.29
2019-02-15T21:35:15.498Z,38.38
2019-02-15T21:37:45.152Z,38.30
2019-02-15T21:40:15.580Z,38.26
2019-02-15T21:42:45.268Z,38.26
2019-02-15T21:45:14.987Z,38.27
2019-02-15T21:47:44.567Z,38.24
2019-02-15T21:50:17.418Z,38.17
2019-02-15T21:52:45.823Z,38.15
2019-02-15T21:55:15.528Z,38.18
2019-02-15T21:57:45.256Z,38.18
2019-02-15T22:00:16.898Z,38.21
2019-02-15T22:02:46.714Z,38.22
2019-02-15T22:05:16.572Z,38.22
2019-02-15T22:07:46.241Z,38.21
2019-02-15T22:10:15.957Z,38.24
2019-02-15T22:12:45.766Z,38.22
2019-02-15T22:15:15.408Z,38.19
2019-02-15T22:17:45.001Z,38.26
2019-02-15T22:20:14.791Z,38.23
2019-02-15T22:22:45.447Z,38.17
2019-02-15T22:25:15.087Z,38.17
2019-02-15T22:27:44.755Z,38.11
2019-02-15T22:30:14.916Z,38.22
2019-02-15T22:32:44.583Z,38.20
2019-02-15T22:35:14.539Z,38.36
2019-02-15T22:37:44.109Z,38.25
2019-02-15T22:40:39.106Z,38.41
2019-02-15T22:43:11.758Z,38.39
2019-02-15T22:45:41.497Z,38.28
2019-02-15T22:48:11.127Z,38.33
2019-02-15T22:50:40.860Z,38.29
2019-02-15T22:53:10.615Z,38.24
2019-02-15T22:55:40.333Z,38.23
2019-02-15T22:58:10.082Z,38.25
2019-02-15T23:00:50.320Z,38.21
2019-02-15T23:03:22.009Z,38.24
2019-02-15T23:05:51.671Z,38.26
2019-02-15T23:08:21.442Z,38.25
2019-02-15T23:10:50.997Z,38.26
2019-02-15T23:13:20.698Z,38.23
2019-02-15T23:15:50.548Z,38.26
2019-02-15T23:18:20.334Z,38.28
2019-02-15T23:20:49.931Z,38.26
2019-02-15T23:23:19.750Z,38.29
2019-02-15T23:25:49.483Z,38.34
2019-02-15T23:28:19.176Z,38.30
2019-02-15T23:30:48.912Z,38.32
2019-02-15T23:33:18.489Z,38.28
2019-02-15T23:35:48.197Z,38.23
2019-02-15T23:38:17.862Z,38.24
2019-02-15T23:40:47.515Z,38.25
2019-02-15T23:43:17.164Z,38.22
2019-02-15T23:45:46.853Z,38.31
2019-02-15T23:48:16.462Z,38.34
2019-02-15T23:50:54.430Z,38.56
2019-02-15T23:53:17.613Z,38.46
2019-02-15T23:55:47.328Z,38.46
2019-02-15T23:58:16.974Z,38.42
